sensor_id;sensor_type;location;lat;lon;timestamp;P1;durP1;ratioP1;P2;durP2;ratioP2
30398;SDS011;17195;50.838;7.214;2023-03-13T00:00:59;20.10;;;3.75;;
30398;SDS011;17195;50.838;7.214;2023-03-13T00:03:26;24.65;;;3.95;;
30398;SDS011;17195;50.838;7.214;2023-03-13T00:05:56;17.58;;;3.17;;
30398;SDS011;17195;50.838;7.214;2023-03-13T00:08:23;15.35;;;2.50;;
30398;SDS011;17195;50.838;7.214;2023-03-13T00:10:49;20.67;;;3.33;;
30398;SDS011;17195;50.838;7.214;2023-03-13T00:13:14;18.42;;;3.33;;
30398;SDS011;17195;50.838;7.214;2023-03-13T00:15:41;16.38;;;4.05;;
30398;SDS011;17195;50.838;7.214;2023-03-13T00:18:07;15.75;;;2.88;;
30398;SDS011;17195;50.838;7.214;2023-03-13T00:20:32;18.38;;;3.08;;
30398;SDS011;17195;50.838;7.214;2023-03-13T00:22:58;15.52;;;3.08;;
30398;SDS011;17195;50.838;7.214;2023-03-13T00:25:23;18.92;;;3.03;;
30398;SDS011;17195;50.838;7.214;2023-03-13T00:27:49;20.17;;;3.30;;
30398;SDS011;17195;50.838;7.214;2023-03-13T00:30:14;14.35;;;3.00;;
30398;SDS011;17195;50.838;7.214;2023-03-13T00:32:41;15.93;;;2.92;;
30398;SDS011;17195;50.838;7.214;2023-03-13T00:35:08;23.67;;;3.42;;
30398;SDS011;17195;50.838;7.214;2023-03-13T00:37:33;19.48;;;3.40;;
30398;SDS011;17195;50.838;7.214;2023-03-13T00:39:59;18.23;;;3.33;;
30398;SDS011;17195;50.838;7.214;2023-03-13T00:42:24;21.85;;;3.10;;
30398;SDS011;17195;50.838;7.214;2023-03-13T00:44:50;16.27;;;3.08;;
30398;SDS011;17195;50.838;7.214;2023-03-13T00:47:15;20.02;;;3.40;;
30398;SDS011;17195;50.838;7.214;2023-03-13T00:49:41;18.08;;;4.05;;
30398;SDS011;17195;50.838;7.214;2023-03-13T00:52:06;15.30;;;3.00;;
30398;SDS011;17195;50.838;7.214;2023-03-13T00:54:32;24.85;;;3.45;;
30398;SDS011;17195;50.838;7.214;2023-03-13T00:56:57;22.95;;;3.58;;
30398;SDS011;17195;50.838;7.214;2023-03-13T00:59:23;21.90;;;3.78;;
30398;SDS011;17195;50.838;7.214;2023-03-13T01:01:49;13.82;;;3.33;;
30398;SDS011;17195;50.838;7.214;2023-03-13T01:04:14;16.88;;;3.53;;
30398;SDS011;17195;50.838;7.214;2023-03-13T01:06:40;19.77;;;4.47;;
30398;SDS011;17195;50.838;7.214;2023-03-13T01:09:07;21.88;;;3.63;;
30398;SDS011;17195;50.838;7.214;2023-03-13T01:11:36;18.02;;;3.65;;
30398;SDS011;17195;50.838;7.214;2023-03-13T01:14:04;17.65;;;2.80;;
30398;SDS011;17195;50.838;7.214;2023-03-13T01:16:33;17.52;;;3.05;;
30398;SDS011;17195;50.838;7.214;2023-03-13T01:19:00;17.48;;;3.58;;
30398;SDS011;17195;50.838;7.214;2023-03-13T01:21:27;17.30;;;3.30;;
30398;SDS011;17195;50.838;7.214;2023-03-13T01:23:54;21.48;;;3.67;;
30398;SDS011;17195;50.838;7.214;2023-03-13T01:26:20;19.77;;;3.58;;
30398;SDS011;17195;50.838;7.214;2023-03-13T01:28:46;17.33;;;3.50;;
30398;SDS011;17195;50.838;7.214;2023-03-13T01:31:13;19.95;;;4.03;;
30398;SDS011;17195;50.838;7.214;2023-03-13T01:33:41;22.63;;;4.00;;
30398;SDS011;17195;50.838;7.214;2023-03-13T01:36:07;20.50;;;3.28;;
30398;SDS011;17195;50.838;7.214;2023-03-13T01:38:33;17.35;;;3.35;;
30398;SDS011;17195;50.838;7.214;2023-03-13T01:40:59;21.77;;;4.00;;
30398;SDS011;17195;50.838;7.214;2023-03-13T01:43:25;17.30;;;3.40;;
30398;SDS011;17195;50.838;7.214;2023-03-13T01:51:24;15.52;;;3.58;;
30398;SDS011;17195;50.838;7.214;2023-03-13T01:56:35;13.40;;;2.63;;
30398;SDS011;17195;50.838;7.214;2023-03-13T01:59:05;18.63;;;3.72;;
30398;SDS011;17195;50.838;7.214;2023-03-13T02:01:33;13.98;;;3.17;;
30398;SDS011;17195;50.838;7.214;2023-03-13T02:03:59;16.67;;;2.90;;
30398;SDS011;17195;50.838;7.214;2023-03-13T02:06:26;15.55;;;2.63;;
30398;SDS011;17195;50.838;7.214;2023-03-13T02:08:55;10.85;;;2.50;;
30398;SDS011;17195;50.838;7.214;2023-03-13T02:11:26;14.07;;;2.33;;
30398;SDS011;17195;50.838;7.214;2023-03-13T02:13:56;11.23;;;2.22;;
30398;SDS011;17195;50.838;7.214;2023-03-13T02:16:23;12.63;;;1.98;;
30398;SDS011;17195;50.838;7.214;2023-03-13T02:18:49;14.15;;;2.40;;
30398;SDS011;17195;50.838;7.214;2023-03-13T02:24:25;19.40;;;2.58;;
30398;SDS011;17195;50.838;7.214;2023-03-13T02:26:52;12.98;;;3.15;;
30398;SDS011;17195;50.838;7.214;2023-03-13T02:29:18;17.48;;;3.20;;
30398;SDS011;17195;50.838;7.214;2023-03-13T02:31:45;14.98;;;3.10;;
30398;SDS011;17195;50.838;7.214;2023-03-13T02:34:13;22.48;;;3.17;;
30398;SDS011;17195;50.838;7.214;2023-03-13T02:36:41;14.23;;;2.85;;
30398;SDS011;17195;50.838;7.214;2023-03-13T02:39:08;13.05;;;2.60;;
30398;SDS011;17195;50.838;7.214;2023-03-13T02:41:36;11.82;;;2.53;;
30398;SDS011;17195;50.838;7.214;2023-03-13T02:44:04;17.55;;;2.95;;
30398;SDS011;17195;50.838;7.214;2023-03-13T02:46:30;10.68;;;2.00;;
30398;SDS011;17195;50.838;7.214;2023-03-13T02:49:21;11.88;;;2.67;;
30398;SDS011;17195;50.838;7.214;2023-03-13T02:51:52;7.60;;;1.58;;
30398;SDS011;17195;50.838;7.214;2023-03-13T02:54:25;9.85;;;2.00;;
30398;SDS011;17195;50.838;7.214;2023-03-13T02:56:57;11.05;;;1.83;;
30398;SDS011;17195;50.838;7.214;2023-03-13T02:59:26;7.30;;;1.35;;
30398;SDS011;17195;50.838;7.214;2023-03-13T03:01:52;8.18;;;1.70;;
30398;SDS011;17195;50.838;7.214;2023-03-13T03:04:18;7.43;;;1.30;;
30398;SDS011;17195;50.838;7.214;2023-03-13T03:06:46;6.22;;;1.05;;
30398;SDS011;17195;50.838;7.214;2023-03-13T03:09:12;6.80;;;1.40;;
30398;SDS011;17195;50.838;7.214;2023-03-13T03:11:37;6.15;;;1.13;;
30398;SDS011;17195;50.838;7.214;2023-03-13T03:14:03;4.97;;;1.20;;
30398;SDS011;17195;50.838;7.214;2023-03-13T03:16:29;7.80;;;1.30;;
30398;SDS011;17195;50.838;7.214;2023-03-13T03:18:55;6.47;;;1.05;;
30398;SDS011;17195;50.838;7.214;2023-03-13T03:21:20;3.92;;;0.80;;
30398;SDS011;17195;50.838;7.214;2023-03-13T03:23:48;2.92;;;0.90;;
30398;SDS011;17195;50.838;7.214;2023-03-13T03:26:14;3.65;;;0.98;;
30398;SDS011;17195;50.838;7.214;2023-03-13T03:28:39;3.15;;;1.10;;
30398;SDS011;17195;50.838;7.214;2023-03-13T03:31:06;2.85;;;0.80;;
30398;SDS011;17195;50.838;7.214;2023-03-13T03:33:32;3.05;;;1.08;;
30398;SDS011;17195;50.838;7.214;2023-03-13T03:36:01;1.08;;;0.40;;
30398;SDS011;17195;50.838;7.214;2023-03-13T03:38:28;3.60;;;0.82;;
30398;SDS011;17195;50.838;7.214;2023-03-13T03:40:54;3.65;;;0.70;;
30398;SDS011;17195;50.838;7.214;2023-03-13T03:43:20;4.22;;;0.63;;
30398;SDS011;17195;50.838;7.214;2023-03-13T03:45:45;2.10;;;0.60;;
30398;SDS011;17195;50.838;7.214;2023-03-13T03:48:11;1.17;;;0.70;;
30398;SDS011;17195;50.838;7.214;2023-03-13T03:50:36;3.05;;;0.68;;
30398;SDS011;17195;50.838;7.214;2023-03-13T03:53:02;3.42;;;0.80;;
30398;SDS011;17195;50.838;7.214;2023-03-13T03:55:27;4.85;;;1.10;;
30398;SDS011;17195;50.838;7.214;2023-03-13T03:57:53;2.40;;;0.60;;
30398;SDS011;17195;50.838;7.214;2023-03-13T04:00:19;3.40;;;0.80;;
30398;SDS011;17195;50.838;7.214;2023-03-13T04:02:45;1.17;;;0.50;;
30398;SDS011;17195;50.838;7.214;2023-03-13T04:05:10;2.03;;;0.50;;
30398;SDS011;17195;50.838;7.214;2023-03-13T04:07:36;0.98;;;0.50;;
30398;SDS011;17195;50.838;7.214;2023-03-13T04:10:02;1.60;;;0.30;;
30398;SDS011;17195;50.838;7.214;2023-03-13T04:12:28;0.73;;;0.40;;
30398;SDS011;17195;50.838;7.214;2023-03-13T04:14:54;3.55;;;0.70;;
30398;SDS011;17195;50.838;7.214;2023-03-13T04:17:19;1.70;;;0.47;;
30398;SDS011;17195;50.838;7.214;2023-03-13T04:19:45;0.93;;;0.40;;
30398;SDS011;17195;50.838;7.214;2023-03-13T04:22:10;2.92;;;0.30;;
30398;SDS011;17195;50.838;7.214;2023-03-13T04:24:36;0.95;;;0.38;;
30398;SDS011;17195;50.838;7.214;2023-03-13T04:27:01;1.65;;;0.30;;
30398;SDS011;17195;50.838;7.214;2023-03-13T04:29:30;1.73;;;0.43;;
30398;SDS011;17195;50.838;7.214;2023-03-13T04:31:56;0.57;;;0.30;;
30398;SDS011;17195;50.838;7.214;2023-03-13T04:34:22;0.80;;;0.30;;
30398;SDS011;17195;50.838;7.214;2023-03-13T04:36:47;0.52;;;0.15;;
30398;SDS011;17195;50.838;7.214;2023-03-13T04:39:13;2.20;;;0.45;;
30398;SDS011;17195;50.838;7.214;2023-03-13T04:41:38;0.52;;;0.20;;
30398;SDS011;17195;50.838;7.214;2023-03-13T04:44:04;1.73;;;0.30;;
30398;SDS011;17195;50.838;7.214;2023-03-13T04:46:30;1.02;;;0.30;;
30398;SDS011;17195;50.838;7.214;2023-03-13T04:48:55;1.02;;;0.35;;
30398;SDS011;17195;50.838;7.214;2023-03-13T04:51:21;0.80;;;0.30;;
30398;SDS011;17195;50.838;7.214;2023-03-13T04:53:46;1.17;;;0.50;;
30398;SDS011;17195;50.838;7.214;2023-03-13T04:56:13;1.48;;;0.30;;
30398;SDS011;17195;50.838;7.214;2023-03-13T04:58:45;0.30;;;0.22;;
30398;SDS011;17195;50.838;7.214;2023-03-13T05:01:11;1.10;;;0.68;;
30398;SDS011;17195;50.838;7.214;2023-03-13T05:03:36;2.70;;;0.55;;
30398;SDS011;17195;50.838;7.214;2023-03-13T05:06:02;1.08;;;0.50;;
30398;SDS011;17195;50.838;7.214;2023-03-13T05:08:28;1.13;;;0.57;;
30398;SDS011;17195;50.838;7.214;2023-03-13T05:10:53;1.52;;;0.60;;
30398;SDS011;17195;50.838;7.214;2023-03-13T05:13:19;0.77;;;0.20;;
30398;SDS011;17195;50.838;7.214;2023-03-13T05:15:44;1.60;;;0.38;;
30398;SDS011;17195;50.838;7.214;2023-03-13T05:18:10;1.23;;;0.20;;
30398;SDS011;17195;50.838;7.214;2023-03-13T05:20:36;1.90;;;0.30;;
30398;SDS011;17195;50.838;7.214;2023-03-13T05:23:02;1.58;;;0.30;;
30398;SDS011;17195;50.838;7.214;2023-03-13T05:25:28;1.52;;;0.30;;
30398;SDS011;17195;50.838;7.214;2023-03-13T05:27:53;0.20;;;0.20;;
30398;SDS011;17195;50.838;7.214;2023-03-13T05:30:19;1.65;;;0.28;;
30398;SDS011;17195;50.838;7.214;2023-03-13T05:32:45;0.38;;;0.30;;
30398;SDS011;17195;50.838;7.214;2023-03-13T05:35:10;0.65;;;0.28;;
30398;SDS011;17195;50.838;7.214;2023-03-13T05:37:36;1.17;;;0.20;;
30398;SDS011;17195;50.838;7.214;2023-03-13T05:40:01;2.20;;;0.30;;
30398;SDS011;17195;50.838;7.214;2023-03-13T05:42:28;1.42;;;0.40;;
30398;SDS011;17195;50.838;7.214;2023-03-13T05:44:53;1.17;;;0.60;;
30398;SDS011;17195;50.838;7.214;2023-03-13T05:47:19;1.05;;;0.40;;
30398;SDS011;17195;50.838;7.214;2023-03-13T05:49:45;1.77;;;0.60;;
30398;SDS011;17195;50.838;7.214;2023-03-13T05:52:10;0.88;;;0.45;;
30398;SDS011;17195;50.838;7.214;2023-03-13T05:54:36;0.80;;;0.40;;
30398;SDS011;17195;50.838;7.214;2023-03-13T05:57:01;2.08;;;0.63;;
30398;SDS011;17195;50.838;7.214;2023-03-13T05:59:27;0.73;;;0.20;;
30398;SDS011;17195;50.838;7.214;2023-03-13T06:01:52;1.75;;;0.35;;
30398;SDS011;17195;50.838;7.214;2023-03-13T06:04:18;0.93;;;0.43;;
30398;SDS011;17195;50.838;7.214;2023-03-13T06:06:44;0.57;;;0.43;;
30398;SDS011;17195;50.838;7.214;2023-03-13T06:09:10;1.20;;;0.50;;
30398;SDS011;17195;50.838;7.214;2023-03-13T06:11:36;0.30;;;0.20;;
30398;SDS011;17195;50.838;7.214;2023-03-13T06:14:01;0.30;;;0.30;;
30398;SDS011;17195;50.838;7.214;2023-03-13T06:16:27;1.05;;;0.30;;
30398;SDS011;17195;50.838;7.214;2023-03-13T06:18:53;0.40;;;0.17;;
30398;SDS011;17195;50.838;7.214;2023-03-13T06:21:18;0.90;;;0.30;;
30398;SDS011;17195;50.838;7.214;2023-03-13T06:23:44;1.25;;;0.20;;
30398;SDS011;17195;50.838;7.214;2023-03-13T06:26:09;0.20;;;0.20;;
30398;SDS011;17195;50.838;7.214;2023-03-13T06:28:35;1.00;;;0.25;;
30398;SDS011;17195;50.838;7.214;2023-03-13T06:31:01;0.20;;;0.20;;
30398;SDS011;17195;50.838;7.214;2023-03-13T06:33:28;2.28;;;0.30;;
30398;SDS011;17195;50.838;7.214;2023-03-13T06:35:54;0.32;;;0.30;;
30398;SDS011;17195;50.838;7.214;2023-03-13T06:38:20;0.20;;;0.20;;
30398;SDS011;17195;50.838;7.214;2023-03-13T06:40:46;2.92;;;2.55;;
30398;SDS011;17195;50.838;7.214;2023-03-13T06:43:12;0.60;;;0.60;;
30398;SDS011;17195;50.838;7.214;2023-03-13T06:45:37;0.60;;;0.60;;
30398;SDS011;17195;50.838;7.214;2023-03-13T06:48:03;0.70;;;0.52;;
30398;SDS011;17195;50.838;7.214;2023-03-13T06:50:29;0.90;;;0.75;;
30398;SDS011;17195;50.838;7.214;2023-03-13T06:52:54;1.15;;;0.98;;
30398;SDS011;17195;50.838;7.214;2023-03-13T06:55:21;0.68;;;0.50;;
30398;SDS011;17195;50.838;7.214;2023-03-13T06:57:50;1.30;;;0.55;;
30398;SDS011;17195;50.838;7.214;2023-03-13T07:00:17;0.90;;;0.70;;
30398;SDS011;17195;50.838;7.214;2023-03-13T07:02:43;0.98;;;0.52;;
30398;SDS011;17195;50.838;7.214;2023-03-13T07:05:09;0.63;;;0.40;;
30398;SDS011;17195;50.838;7.214;2023-03-13T07:07:34;1.50;;;0.70;;
30398;SDS011;17195;50.838;7.214;2023-03-13T07:10:00;1.25;;;0.68;;
30398;SDS011;17195;50.838;7.214;2023-03-13T07:12:26;0.68;;;0.50;;
30398;SDS011;17195;50.838;7.214;2023-03-13T07:14:52;2.15;;;0.70;;
30398;SDS011;17195;50.838;7.214;2023-03-13T07:17:17;1.00;;;0.90;;
30398;SDS011;17195;50.838;7.214;2023-03-13T07:19:43;3.05;;;1.00;;
30398;SDS011;17195;50.838;7.214;2023-03-13T07:22:08;1.67;;;1.05;;
30398;SDS011;17195;50.838;7.214;2023-03-13T07:24:34;2.22;;;1.05;;
30398;SDS011;17195;50.838;7.214;2023-03-13T07:27:00;1.70;;;0.90;;
30398;SDS011;17195;50.838;7.214;2023-03-13T07:29:25;1.35;;;0.75;;
30398;SDS011;17195;50.838;7.214;2023-03-13T07:31:51;2.45;;;0.80;;
30398;SDS011;17195;50.838;7.214;2023-03-13T07:34:16;1.95;;;0.80;;
30398;SDS011;17195;50.838;7.214;2023-03-13T07:36:42;1.05;;;0.70;;
30398;SDS011;17195;50.838;7.214;2023-03-13T07:39:08;2.95;;;1.25;;
30398;SDS011;17195;50.838;7.214;2023-03-13T07:41:33;1.25;;;1.05;;
30398;SDS011;17195;50.838;7.214;2023-03-13T07:43:59;4.00;;;1.50;;
30398;SDS011;17195;50.838;7.214;2023-03-13T07:46:25;5.13;;;1.63;;
30398;SDS011;17195;50.838;7.214;2023-03-13T07:48:51;3.50;;;1.50;;
30398;SDS011;17195;50.838;7.214;2023-03-13T07:51:21;4.32;;;2.25;;
30398;SDS011;17195;50.838;7.214;2023-03-13T07:53:48;6.88;;;2.17;;
30398;SDS011;17195;50.838;7.214;2023-03-13T07:56:15;5.47;;;1.38;;
30398;SDS011;17195;50.838;7.214;2023-03-13T07:58:43;3.88;;;1.70;;
30398;SDS011;17195;50.838;7.214;2023-03-13T08:03:36;3.83;;;1.35;;
30398;SDS011;17195;50.838;7.214;2023-03-13T08:06:03;4.97;;;1.67;;
30398;SDS011;17195;50.838;7.214;2023-03-13T08:08:33;3.17;;;1.73;;
30398;SDS011;17195;50.838;7.214;2023-03-13T08:11:00;3.92;;;1.77;;
30398;SDS011;17195;50.838;7.214;2023-03-13T08:13:25;4.05;;;1.50;;
30398;SDS011;17195;50.838;7.214;2023-03-13T08:15:51;5.28;;;1.65;;
30398;SDS011;17195;50.838;7.214;2023-03-13T08:18:16;3.35;;;1.50;;
30398;SDS011;17195;50.838;7.214;2023-03-13T08:20:42;4.88;;;1.52;;
30398;SDS011;17195;50.838;7.214;2023-03-13T08:23:07;5.78;;;1.70;;
30398;SDS011;17195;50.838;7.214;2023-03-13T08:25:33;3.88;;;1.23;;
30398;SDS011;17195;50.838;7.214;2023-03-13T08:27:58;4.47;;;1.52;;
30398;SDS011;17195;50.838;7.214;2023-03-13T08:30:24;6.28;;;1.92;;
30398;SDS011;17195;50.838;7.214;2023-03-13T08:32:49;5.18;;;1.98;;
30398;SDS011;17195;50.838;7.214;2023-03-13T08:35:15;4.03;;;1.60;;
30398;SDS011;17195;50.838;7.214;2023-03-13T08:37:40;3.00;;;1.38;;
30398;SDS011;17195;50.838;7.214;2023-03-13T08:40:06;6.78;;;1.60;;
30398;SDS011;17195;50.838;7.214;2023-03-13T08:42:35;3.97;;;1.88;;
30398;SDS011;17195;50.838;7.214;2023-03-13T08:45:02;6.90;;;1.90;;
30398;SDS011;17195;50.838;7.214;2023-03-13T08:47:28;7.60;;;1.80;;
30398;SDS011;17195;50.838;7.214;2023-03-13T08:49:54;7.05;;;1.98;;
30398;SDS011;17195;50.838;7.214;2023-03-13T08:52:20;5.47;;;2.47;;
30398;SDS011;17195;50.838;7.214;2023-03-13T08:54:47;5.30;;;2.33;;
30398;SDS011;17195;50.838;7.214;2023-03-13T08:57:12;3.70;;;1.73;;
30398;SDS011;17195;50.838;7.214;2023-03-13T08:59:39;6.10;;;3.30;;
30398;SDS011;17195;50.838;7.214;2023-03-13T09:02:04;11.38;;;4.88;;
30398;SDS011;17195;50.838;7.214;2023-03-13T09:04:30;6.78;;;2.17;;
30398;SDS011;17195;50.838;7.214;2023-03-13T09:06:55;14.77;;;6.00;;
30398;SDS011;17195;50.838;7.214;2023-03-13T09:09:21;10.45;;;3.30;;
30398;SDS011;17195;50.838;7.214;2023-03-13T09:11:47;5.43;;;2.20;;
30398;SDS011;17195;50.838;7.214;2023-03-13T09:14:12;5.65;;;2.28;;
30398;SDS011;17195;50.838;7.214;2023-03-13T09:16:38;9.48;;;3.22;;
30398;SDS011;17195;50.838;7.214;2023-03-13T09:19:03;20.73;;;5.85;;
30398;SDS011;17195;50.838;7.214;2023-03-13T09:21:30;9.65;;;2.85;;
30398;SDS011;17195;50.838;7.214;2023-03-13T09:23:57;19.52;;;7.60;;
30398;SDS011;17195;50.838;7.214;2023-03-13T09:26:23;15.20;;;5.13;;
30398;SDS011;17195;50.838;7.214;2023-03-13T09:28:50;9.40;;;4.13;;
30398;SDS011;17195;50.838;7.214;2023-03-13T09:31:17;4.57;;;1.90;;
30398;SDS011;17195;50.838;7.214;2023-03-13T09:33:47;1.92;;;1.05;;
30398;SDS011;17195;50.838;7.214;2023-03-13T09:36:13;3.67;;;1.27;;
30398;SDS011;17195;50.838;7.214;2023-03-13T09:38:39;6.53;;;1.55;;
30398;SDS011;17195;50.838;7.214;2023-03-13T09:46:24;2.28;;;1.17;;
30398;SDS011;17195;50.838;7.214;2023-03-13T09:48:56;3.75;;;1.45;;
30398;SDS011;17195;50.838;7.214;2023-03-13T09:51:26;4.93;;;1.30;;
30398;SDS011;17195;50.838;7.214;2023-03-13T09:56:30;3.40;;;1.10;;
30398;SDS011;17195;50.838;7.214;2023-03-13T09:59:17;2.85;;;1.20;;
30398;SDS011;17195;50.838;7.214;2023-03-13T10:01:48;4.63;;;1.27;;
30398;SDS011;17195;50.838;7.214;2023-03-13T10:04:23;1.65;;;0.80;;
30398;SDS011;17195;50.838;7.214;2023-03-13T10:06:54;2.78;;;1.00;;
30398;SDS011;17195;50.838;7.214;2023-03-13T10:09:30;2.88;;;1.10;;
30398;SDS011;17195;50.838;7.214;2023-03-13T10:12:15;1.73;;;0.90;;
30398;SDS011;17195;50.838;7.214;2023-03-13T10:14:48;1.20;;;0.98;;
30398;SDS011;17195;50.838;7.214;2023-03-13T10:17:34;2.03;;;1.10;;
30398;SDS011;17195;50.838;7.214;2023-03-13T10:20:47;3.50;;;1.30;;
30398;SDS011;17195;50.838;7.214;2023-03-13T10:25:29;3.13;;;1.10;;
30398;SDS011;17195;50.838;7.214;2023-03-13T10:27:56;2.38;;;1.70;;
30398;SDS011;17195;50.838;7.214;2023-03-13T10:32:51;3.55;;;1.15;;
30398;SDS011;17195;50.838;7.214;2023-03-13T10:35:23;2.47;;;1.40;;
30398;SDS011;17195;50.838;7.214;2023-03-13T10:38:05;3.13;;;1.70;;
30398;SDS011;17195;50.838;7.214;2023-03-13T10:40:54;3.10;;;1.40;;
30398;SDS011;17195;50.838;7.214;2023-03-13T10:43:25;6.28;;;2.40;;
30398;SDS011;17195;50.838;7.214;2023-03-13T10:45:53;2.67;;;1.02;;
30398;SDS011;17195;50.838;7.214;2023-03-13T10:50:45;3.42;;;1.33;;
30398;SDS011;17195;50.838;7.214;2023-03-13T10:53:31;3.38;;;0.93;;
30398;SDS011;17195;50.838;7.214;2023-03-13T10:56:14;1.95;;;1.10;;
30398;SDS011;17195;50.838;7.214;2023-03-13T10:58:44;3.13;;;1.15;;
30398;SDS011;17195;50.838;7.214;2023-03-13T11:03:43;2.30;;;1.08;;
30398;SDS011;17195;50.838;7.214;2023-03-13T11:11:28;1.65;;;0.90;;
30398;SDS011;17195;50.838;7.214;2023-03-13T11:14:05;2.33;;;1.33;;
30398;SDS011;17195;50.838;7.214;2023-03-13T11:16:34;1.77;;;1.20;;
30398;SDS011;17195;50.838;7.214;2023-03-13T11:19:08;2.17;;;1.00;;
30398;SDS011;17195;50.838;7.214;2023-03-13T11:25:26;1.17;;;0.82;;
30398;SDS011;17195;50.838;7.214;2023-03-13T11:27:40;2.13;;;0.75;;
30398;SDS011;17195;50.838;7.214;2023-03-13T11:36:20;1.42;;;0.80;;
30398;SDS011;17195;50.838;7.214;2023-03-13T11:38:47;3.05;;;0.68;;
30398;SDS011;17195;50.838;7.214;2023-03-13T11:47:14;1.40;;;0.70;;
30398;SDS011;17195;50.838;7.214;2023-03-13T11:52:54;0.47;;;0.40;;
30398;SDS011;17195;50.838;7.214;2023-03-13T11:55:45;1.55;;;0.50;;
30398;SDS011;17195;50.838;7.214;2023-03-13T11:58:37;1.08;;;0.60;;
30398;SDS011;17195;50.838;7.214;2023-03-13T12:01:32;0.50;;;0.32;;
30398;SDS011;17195;50.838;7.214;2023-03-13T12:04:07;1.85;;;1.10;;
30398;SDS011;17195;50.838;7.214;2023-03-13T12:06:54;0.80;;;0.30;;
30398;SDS011;17195;50.838;7.214;2023-03-13T12:09:36;0.95;;;0.30;;
30398;SDS011;17195;50.838;7.214;2023-03-13T12:12:50;2.83;;;0.40;;
30398;SDS011;17195;50.838;7.214;2023-03-13T12:15:23;0.55;;;0.30;;
30398;SDS011;17195;50.838;7.214;2023-03-13T12:17:59;0.30;;;0.30;;
30398;SDS011;17195;50.838;7.214;2023-03-13T12:20:54;0.43;;;0.30;;
30398;SDS011;17195;50.838;7.214;2023-03-13T12:26:09;0.93;;;0.40;;
30398;SDS011;17195;50.838;7.214;2023-03-13T12:39:51;1.15;;;0.68;;
30398;SDS011;17195;50.838;7.214;2023-03-13T12:42:41;0.57;;;0.40;;
30398;SDS011;17195;50.838;7.214;2023-03-13T12:45:18;4.97;;;1.65;;
30398;SDS011;17195;50.838;7.214;2023-03-13T13:01:44;1.73;;;0.60;;
30398;SDS011;17195;50.838;7.214;2023-03-13T13:04:18;1.73;;;0.50;;
30398;SDS011;17195;50.838;7.214;2023-03-13T13:07:00;0.60;;;0.50;;
30398;SDS011;17195;50.838;7.214;2023-03-13T13:09:29;8.23;;;2.60;;
30398;SDS011;17195;50.838;7.214;2023-03-13T13:12:01;2.78;;;0.85;;
30398;SDS011;17195;50.838;7.214;2023-03-13T13:16:59;7.32;;;2.50;;
30398;SDS011;17195;50.838;7.214;2023-03-13T13:27:46;2.38;;;1.13;;
30398;SDS011;17195;50.838;7.214;2023-03-13T13:30:27;1.45;;;0.88;;
30398;SDS011;17195;50.838;7.214;2023-03-13T13:32:56;2.40;;;1.38;;
30398;SDS011;17195;50.838;7.214;2023-03-13T13:36:24;1.15;;;0.60;;
30398;SDS011;17195;50.838;7.214;2023-03-13T13:38:32;1.40;;;0.70;;
30398;SDS011;17195;50.838;7.214;2023-03-13T13:43:39;1.10;;;0.75;;
30398;SDS011;17195;50.838;7.214;2023-03-13T13:51:29;2.38;;;1.17;;
30398;SDS011;17195;50.838;7.214;2023-03-13T13:53:57;2.67;;;1.08;;
30398;SDS011;17195;50.838;7.214;2023-03-13T13:56:28;2.15;;;0.70;;
30398;SDS011;17195;50.838;7.214;2023-03-13T13:58:58;0.55;;;0.50;;
30398;SDS011;17195;50.838;7.214;2023-03-13T14:01:27;1.70;;;0.70;;
30398;SDS011;17195;50.838;7.214;2023-03-13T14:03:56;0.65;;;0.63;;
30398;SDS011;17195;50.838;7.214;2023-03-13T14:06:32;1.30;;;0.50;;
30398;SDS011;17195;50.838;7.214;2023-03-13T14:11:50;0.98;;;0.80;;
30398;SDS011;17195;50.838;7.214;2023-03-13T14:14:17;1.00;;;0.50;;
30398;SDS011;17195;50.838;7.214;2023-03-13T14:16:48;0.47;;;0.40;;
30398;SDS011;17195;50.838;7.214;2023-03-13T14:19:22;0.88;;;0.40;;
30398;SDS011;17195;50.838;7.214;2023-03-13T14:21:50;1.80;;;0.40;;
30398;SDS011;17195;50.838;7.214;2023-03-13T14:24:21;1.65;;;0.50;;
30398;SDS011;17195;50.838;7.214;2023-03-13T14:26:46;0.50;;;0.50;;
30398;SDS011;17195;50.838;7.214;2023-03-13T14:29:16;0.60;;;0.57;;
30398;SDS011;17195;50.838;7.214;2023-03-13T14:31:50;0.85;;;0.40;;
30398;SDS011;17195;50.838;7.214;2023-03-13T14:34:17;3.60;;;1.65;;
30398;SDS011;17195;50.838;7.214;2023-03-13T14:36:46;16.17;;;7.28;;
30398;SDS011;17195;50.838;7.214;2023-03-13T14:39:20;7.00;;;3.45;;
30398;SDS011;17195;50.838;7.214;2023-03-13T14:42:02;3.70;;;0.70;;
30398;SDS011;17195;50.838;7.214;2023-03-13T14:44:38;0.43;;;0.30;;
30398;SDS011;17195;50.838;7.214;2023-03-13T14:47:07;0.57;;;0.40;;
30398;SDS011;17195;50.838;7.214;2023-03-13T14:49:44;1.48;;;0.60;;
30398;SDS011;17195;50.838;7.214;2023-03-13T14:52:23;0.35;;;0.30;;
30398;SDS011;17195;50.838;7.214;2023-03-13T14:57:21;0.35;;;0.35;;
30398;SDS011;17195;50.838;7.214;2023-03-13T14:59:51;0.77;;;0.40;;
30398;SDS011;17195;50.838;7.214;2023-03-13T15:04:58;0.32;;;0.30;;
30398;SDS011;17195;50.838;7.214;2023-03-13T15:07:49;0.98;;;0.55;;
30398;SDS011;17195;50.838;7.214;2023-03-13T15:10:19;0.35;;;0.35;;
30398;SDS011;17195;50.838;7.214;2023-03-13T15:12:46;0.30;;;0.30;;
30398;SDS011;17195;50.838;7.214;2023-03-13T15:15:12;2.47;;;0.73;;
30398;SDS011;17195;50.838;7.214;2023-03-13T15:17:38;1.52;;;0.70;;
30398;SDS011;17195;50.838;7.214;2023-03-13T15:20:04;1.25;;;0.40;;
30398;SDS011;17195;50.838;7.214;2023-03-13T15:22:35;0.50;;;0.50;;
30398;SDS011;17195;50.838;7.214;2023-03-13T15:25:03;0.63;;;0.43;;
30398;SDS011;17195;50.838;7.214;2023-03-13T15:27:38;1.42;;;0.40;;
30398;SDS011;17195;50.838;7.214;2023-03-13T15:30:04;1.35;;;0.75;;
30398;SDS011;17195;50.838;7.214;2023-03-13T15:32:33;2.95;;;1.20;;
30398;SDS011;17195;50.838;7.214;2023-03-13T15:35:01;1.35;;;0.32;;
30398;SDS011;17195;50.838;7.214;2023-03-13T15:37:35;0.50;;;0.40;;
30398;SDS011;17195;50.838;7.214;2023-03-13T15:40:01;0.45;;;0.40;;
30398;SDS011;17195;50.838;7.214;2023-03-13T15:42:31;2.45;;;0.45;;
30398;SDS011;17195;50.838;7.214;2023-03-13T15:44:57;0.70;;;0.60;;
30398;SDS011;17195;50.838;7.214;2023-03-13T15:47:22;0.95;;;0.40;;
30398;SDS011;17195;50.838;7.214;2023-03-13T15:49:48;0.65;;;0.47;;
30398;SDS011;17195;50.838;7.214;2023-03-13T15:52:20;0.90;;;0.40;;
30398;SDS011;17195;50.838;7.214;2023-03-13T15:54:47;2.58;;;0.40;;
30398;SDS011;17195;50.838;7.214;2023-03-13T15:57:15;1.58;;;0.40;;
30398;SDS011;17195;50.838;7.214;2023-03-13T15:59:43;0.98;;;0.50;;
30398;SDS011;17195;50.838;7.214;2023-03-13T16:02:13;0.88;;;0.70;;
30398;SDS011;17195;50.838;7.214;2023-03-13T16:04:40;1.23;;;0.50;;
30398;SDS011;17195;50.838;7.214;2023-03-13T16:07:10;1.08;;;0.40;;
30398;SDS011;17195;50.838;7.214;2023-03-13T16:09:36;2.63;;;0.85;;
30398;SDS011;17195;50.838;7.214;2023-03-13T16:12:02;2.28;;;0.80;;
30398;SDS011;17195;50.838;7.214;2023-03-13T16:14:27;1.60;;;0.70;;
30398;SDS011;17195;50.838;7.214;2023-03-13T16:16:53;1.55;;;0.40;;
30398;SDS011;17195;50.838;7.214;2023-03-13T16:19:18;2.00;;;0.80;;
30398;SDS011;17195;50.838;7.214;2023-03-13T16:21:44;2.13;;;0.88;;
30398;SDS011;17195;50.838;7.214;2023-03-13T16:24:12;1.70;;;0.90;;
30398;SDS011;17195;50.838;7.214;2023-03-13T16:26:38;0.95;;;0.65;;
30398;SDS011;17195;50.838;7.214;2023-03-13T16:29:04;1.98;;;0.70;;
30398;SDS011;17195;50.838;7.214;2023-03-13T16:31:30;2.53;;;1.27;;
30398;SDS011;17195;50.838;7.214;2023-03-13T16:33:57;2.22;;;0.80;;
30398;SDS011;17195;50.838;7.214;2023-03-13T16:36:24;1.90;;;0.75;;
30398;SDS011;17195;50.838;7.214;2023-03-13T16:38:55;3.22;;;1.00;;
30398;SDS011;17195;50.838;7.214;2023-03-13T16:41:22;1.63;;;0.50;;
30398;SDS011;17195;50.838;7.214;2023-03-13T16:43:50;2.65;;;1.00;;